Newport, OR

6:37 PM PDT on September 20, 2014 (GMT -0700)
K7BAW-Agate Beach | Change Station
CLOSE
Current Station
Personal Weather Station
Location: Newport, OR
Elevation: 75 ft
Nearby Weather Stations

Elev 75 ft 44.66 °N, 124.05 °W | Updated 1 minute ago

Clear
Clear
65.0 °F
Feels Like 65.0 °F
N
0.0
Wind Variable Wind from WSW
Gusts 0.0 mph

Today
High -- | Low -- °F
--% Chance of Precip.
Yesterday
High -- | Low -- °F
Precip. -- in
7:00 AM 7:17 PM
Waning Crescent, 9% visible
Pressure 29.86 in
Visibility 5.0 miles
Clouds Clear
Dew Point 56 °F
Humidity 73%
Rainfall 0.00 in
Snow Depth 0 in , 0 in , 0 in
UV 1 out of 12
Pollen 2.40 out of 12
Air Quality Not available.
Flu Activity Not available.
METAR KONP 210115Z AUTO 21013KT 5SM HZ CLR 16/13 A2986 RMK AO2

More Conditions Fewer Conditions

Pressure 29.86 in
Visibility 5.0 miles
Clouds Clear
Dew Point 56 °F
Humidity 73%
Rainfall 0.00 in
Snow Depth 0 in , 0 in , 0 in
UV 1 out of 12
Pollen 2.40 out of 12
Air Quality Not available.
Flu Activity Not available.
METAR KONP 210115Z AUTO 21013KT 5SM HZ CLR 16/13 A2986 RMK AO2

More Conditions Fewer Conditions

10-Day Weather Forecast

Almanac

Astronomy

Sep. 20, 2014 Rise Set
Actual Time 7:00 AM PDT 7:17 PM PDT
Civil Twilight 6:31 AM PDT 7:46 PM PDT
Nautical Twilight 5:57 AM PDT 8:20 PM PDT
Astronomical Twilight 5:21 AM PDT 8:55 PM PDT
Moon 3:38 AM PDT (9/20) 5:29 PM PDT (9/20)
Length of Visible Light 13h 14m
Length of Day
12h 16m
Tomorrow will be 3m 4s shorter.
Waning Crescent, 9% of the Moon is Illuminated
Today
Waning Crescent
Sep 24
New
Oct 1
First Quarter
Oct 8
Full
Oct 15
Last Quarter

Today's Extremes

State Highs State Lows

Community

WunderPhotos

Upload Photos

1,755,032 photos uploaded!

WunderBlogs® & News

Nearby

Snow Depth

Station Depth Elevation
Salt Creek Falls 0 in 4000 ft
Blazed Alder 0 in 3650 ft
Daly Lake 0 in 3600 ft
Mud Ridge 0 in 3800 ft
Diamond Lake 0 in 5315 ft

Earthquake Activity

City Distance Mag. Time & Date
No recent earthquake activity has been reported nearby.
Minimum magnitude displayed is 2.5.

Coastal Water Temperatures

Place Temperature
South Beach, OR 59.0 °F
Charleston, OR 57.9 °F

Nearby Weather Stations